LPPR/OPO METAR and TAF weather

Enter ICAO airport designator
Station Type Date Time Source
LPPR METAR 2020/04/03 23:00 UTC NOAA

LPPR 032300Z 00000KT CAVOK 12/08 Q1013


Station Type Date Time Source
LPPR Decoded METAR 2020/04/03 23:00 UTC NOAA

Porto / Pedras Rubras, Portugal (LPPR) 41-14N 008-41W 77M
Apr 03, 2020 - 07:00 PM EDT / 2020.04.03 2300 UTC
Wind: Calm:0
Visibility: greater than 7 mile(s):0
Temperature: 53 F (12 C)
Dew Point: 46 F (8 C)
Relative Humidity: 76%
Pressure (altimeter): 29.91 in. Hg (1013 hPa)
ob: LPPR 032300Z 00000KT CAVOK 12/08 Q1013
cycle: 23

Station Type Date Time Source
LPPR TAF 2020/04/03 18:18 UTC NOAA

TAF LPPR 031700Z 0318/0418 32005KT CAVOK
BECMG 0319/0321 VRB02KT
BECMG 0400/0402 10007KT
BECMG 0409/0412 16010KT

Example: see airport list